createdAt,value
2016-11-21T00:01:06.706Z,11.44
2016-11-21T00:02:20.965Z,11.35
2016-11-21T00:03:37.532Z,11.38
2016-11-21T00:04:53.595Z,11.24
2016-11-21T00:06:09.765Z,11.21
2016-11-21T00:07:24.639Z,11.24
2016-11-21T00:08:40.773Z,11.14
2016-11-21T00:09:55.711Z,11.13
2016-11-21T00:11:12.009Z,11.14
2016-11-21T00:12:27.547Z,11.07
2016-11-21T00:13:44.274Z,11.03
2016-11-21T00:14:59.715Z,11.01
2016-11-21T00:16:15.389Z,11.01
2016-11-21T00:17:31.531Z,10.94
2016-11-21T00:18:47.892Z,10.91
2016-11-21T00:20:04.021Z,10.83
2016-11-21T00:21:20.376Z,10.88
2016-11-21T00:22:36.039Z,10.89
2016-11-21T00:23:51.209Z,10.89
2016-11-21T00:25:07.932Z,10.86
2016-11-21T00:26:23.705Z,10.92
2016-11-21T00:27:39.657Z,10.83
2016-11-21T00:28:52.937Z,10.84
2016-11-21T00:30:09.868Z,10.77
2016-11-21T00:31:24.715Z,10.86
2016-11-21T00:32:39.732Z,10.76
2016-11-21T00:33:53.017Z,10.76
2016-11-21T00:35:06.936Z,10.63
2016-11-21T00:36:19.067Z,10.73
2016-11-21T00:37:35.851Z,10.66
2016-11-21T00:38:51.972Z,10.63
2016-11-21T00:40:07.259Z,10.55
2016-11-21T00:41:22.228Z,10.46
2016-11-21T00:42:36.953Z,10.52
2016-11-21T00:43:53.240Z,10.39
2016-11-21T00:45:09.122Z,10.44
2016-11-21T00:46:24.265Z,10.44
2016-11-21T00:47:40.982Z,10.36
2016-11-21T00:48:55.858Z,10.42
2016-11-21T00:50:12.409Z,10.42
2016-11-21T00:51:27.342Z,10.39
2016-11-21T00:52:43.526Z,10.39
2016-11-21T00:53:58.664Z,10.39
2016-11-21T00:55:14.553Z,10.39
2016-11-21T00:56:31.098Z,10.36
2016-11-21T00:57:46.589Z,10.37
2016-11-21T00:59:02.804Z,10.34
2016-11-21T01:00:17.626Z,10.34
2016-11-21T01:01:32.506Z,10.3
2016-11-21T01:02:48.870Z,10.32
2016-11-21T01:04:04.221Z,10.21
2016-11-21T01:05:21.158Z,10.21
2016-11-21T01:06:36.077Z,10.17
2016-11-21T01:07:50.356Z,10.06
2016-11-21T01:09:05.825Z,10.06
2016-11-21T01:10:20.612Z,10.07
2016-11-21T01:11:36.808Z,10.01
2016-11-21T01:12:53.216Z,9.94
2016-11-21T01:14:09.092Z,10.06
2016-11-21T01:15:23.620Z,9.97
2016-11-21T01:16:39.748Z,10.03
2016-11-21T01:17:54.629Z,9.86
2016-11-21T01:19:09.839Z,9.86
2016-11-21T01:20:25.799Z,9.88
2016-11-21T01:21:42.296Z,9.97
2016-11-21T01:22:57.975Z,9.88
2016-11-21T01:24:12.687Z,9.91
2016-11-21T01:25:29.527Z,9.97
2016-11-21T01:26:45.504Z,9.88
2016-11-21T01:28:00.461Z,9.96
2016-11-21T01:29:16.735Z,10.03
2016-11-21T01:30:33.596Z,9.96
2016-11-21T01:31:49.509Z,10.01
2016-11-21T01:33:05.819Z,9.96
2016-11-21T01:34:21.127Z,10.06
2016-11-21T01:35:36.608Z,9.97
2016-11-21T01:36:50.529Z,10.06
2016-11-21T01:38:06.815Z,9.97
2016-11-21T01:39:23.850Z,10
2016-11-21T01:40:38.311Z,9.97
2016-11-21T01:41:54.170Z,10.12
2016-11-21T01:43:10.217Z,10.07
2016-11-21T01:44:27.311Z,10.07
2016-11-21T01:45:42.013Z,10.01
2016-11-21T01:46:58.877Z,10.07
2016-11-21T01:48:15.396Z,9.97
2016-11-21T01:49:31.428Z,10.04
2016-11-21T01:50:46.960Z,10.01
2016-11-21T01:52:04.055Z,10.1
2016-11-21T01:53:19.146Z,10.07
2016-11-21T01:54:34.379Z,10.15
2016-11-21T01:55:50.088Z,10.12
2016-11-21T01:57:06.365Z,10.18
2016-11-21T01:58:22.657Z,10.18
2016-11-21T01:59:36.846Z,10.19
2016-11-21T02:00:53.417Z,10.24
2016-11-21T02:02:09.375Z,10.28
2016-11-21T02:03:25.252Z,10.34
2016-11-21T02:04:39.671Z,10.4
2016-11-21T02:05:56.508Z,10.37
2016-11-21T02:07:11.165Z,10.46
2016-11-21T02:08:28.160Z,10.42
2016-11-21T02:09:43.154Z,10.46
2016-11-21T02:10:59.031Z,10.47
2016-11-21T02:12:15.376Z,10.53
2016-11-21T02:13:31.635Z,10.59
2016-11-21T02:14:47.620Z,10.63
2016-11-21T02:16:04.079Z,10.65
2016-11-21T02:17:16.821Z,10.68
2016-11-21T02:18:33.523Z,10.65
2016-11-21T02:19:49.837Z,10.73
2016-11-21T02:21:05.871Z,10.66
2016-11-21T02:22:21.640Z,10.7
2016-11-21T02:23:36.489Z,10.73
2016-11-21T02:24:50.305Z,10.77
2016-11-21T02:26:04.181Z,10.83
2016-11-21T02:27:20.322Z,10.86
2016-11-21T02:28:35.135Z,10.8
2016-11-21T02:29:50.219Z,10.78
2016-11-21T02:31:06.524Z,10.86
2016-11-21T02:32:22.289Z,10.91
2016-11-21T02:33:37.068Z,10.92
2016-11-21T02:34:53.554Z,10.95
2016-11-21T02:36:09.598Z,10.86
2016-11-21T02:37:26.196Z,10.99
2016-11-21T02:38:40.999Z,10.96
2016-11-21T02:39:55.969Z,11.03
2016-11-21T02:41:12.152Z,11.03
2016-11-21T02:42:27.366Z,11.02
2016-11-21T02:43:41.879Z,11.07
2016-11-21T02:44:56.405Z,11.13
2016-11-21T02:46:10.652Z,11.17
2016-11-21T02:47:26.148Z,11.11
2016-11-21T02:48:42.891Z,11.21
2016-11-21T02:49:59.204Z,11.1
2016-11-21T02:51:12.601Z,11.21
2016-11-21T02:52:25.789Z,11.19
2016-11-21T02:53:40.638Z,11.17
2016-11-21T02:54:56.527Z,11.11
2016-11-21T02:56:12.026Z,11.19
2016-11-21T02:57:28.768Z,11.2
2016-11-21T02:58:45.752Z,11.2
2016-11-21T03:00:00.668Z,11.21
2016-11-21T03:01:15.006Z,11.16
2016-11-21T03:02:31.286Z,11.19
2016-11-21T03:03:46.117Z,11.2
2016-11-21T03:05:02.163Z,11.25
2016-11-21T03:06:17.363Z,11.25
2016-11-21T03:07:33.826Z,11.27
2016-11-21T03:08:48.610Z,11.27
2016-11-21T03:10:03.329Z,11.27
2016-11-21T03:11:19.847Z,11.2
2016-11-21T03:12:36.119Z,11.2
2016-11-21T03:13:52.643Z,11.27
2016-11-21T03:15:08.224Z,11.31
2016-11-21T03:16:23.992Z,11.2
2016-11-21T03:17:38.313Z,11.34
2016-11-21T03:18:51.728Z,11.41
2016-11-21T03:20:08.407Z,11.36
2016-11-21T03:21:23.109Z,11.41
2016-11-21T03:22:37.302Z,11.43
2016-11-21T03:23:50.815Z,11.43
2016-11-21T03:25:05.074Z,11.5
2016-11-21T03:26:19.915Z,11.46
2016-11-21T03:27:34.823Z,11.52
2016-11-21T03:28:51.263Z,11.54
2016-11-21T03:30:04.897Z,11.56
2016-11-21T03:31:18.378Z,11.52
2016-11-21T03:32:33.440Z,11.54
2016-11-21T03:33:49.647Z,11.56
2016-11-21T03:35:05.845Z,11.62
2016-11-21T03:36:17.422Z,11.65
2016-11-21T03:37:33.706Z,11.68
2016-11-21T03:38:50.151Z,11.71
2016-11-21T03:40:06.424Z,11.65
2016-11-21T03:41:22.739Z,11.74
2016-11-21T03:42:36.518Z,11.71
2016-11-21T03:43:53.695Z,11.71
2016-11-21T03:45:07.996Z,11.78
2016-11-21T03:46:24.109Z,11.85
2016-11-21T03:47:40.579Z,11.89
2016-11-21T03:48:55.994Z,11.83
2016-11-21T03:50:10.012Z,11.94
2016-11-21T03:51:25.432Z,11.87
2016-11-21T03:52:41.448Z,11.96
2016-11-21T03:53:56.938Z,12.02
2016-11-21T03:55:13.899Z,12.06
2016-11-21T03:56:29.800Z,12.13
2016-11-21T03:57:43.313Z,12.06
2016-11-21T03:58:59.038Z,12.05
2016-11-21T04:00:15.348Z,12.12
2016-11-21T04:01:32.415Z,12.09
2016-11-21T04:02:47.710Z,12.12
2016-11-21T04:04:01.905Z,12.2
2016-11-21T04:05:18.637Z,12.15
2016-11-21T04:06:34.940Z,12.15
2016-11-21T04:07:51.470Z,12.16
2016-11-21T04:09:07.519Z,12.19
2016-11-21T04:10:23.824Z,12.12
2016-11-21T04:11:39.356Z,12.12
2016-11-21T04:12:56.055Z,12.27
2016-11-21T04:14:10.514Z,12.29
2016-11-21T04:15:26.599Z,12.29
2016-11-21T04:16:42.973Z,12.3
2016-11-21T04:17:58.120Z,12.26
2016-11-21T04:19:11.773Z,12.39
2016-11-21T04:20:28.486Z,12.41
2016-11-21T04:21:44.912Z,12.39
2016-11-21T04:23:00.797Z,12.46
2016-11-21T04:24:16.290Z,12.42
2016-11-21T04:25:32.985Z,12.46
2016-11-21T04:26:48.040Z,12.44
2016-11-21T04:27:58.260Z,12.45
2016-11-21T04:29:13.241Z,12.51
2016-11-21T04:30:27.586Z,12.51
2016-11-21T04:31:40.713Z,12.63
2016-11-21T04:32:54.491Z,12.51
2016-11-21T04:34:08.954Z,12.52
2016-11-21T04:35:25.476Z,12.49
2016-11-21T04:36:41.917Z,12.63
2016-11-21T04:37:56.994Z,12.56
2016-11-21T04:39:14.089Z,12.56
2016-11-21T04:40:30.853Z,12.64
2016-11-21T04:41:45.645Z,12.64
2016-11-21T04:43:00.316Z,12.74
2016-11-21T04:44:13.538Z,12.67
2016-11-21T04:45:28.158Z,12.74
2016-11-21T04:46:42.823Z,12.7
2016-11-21T04:47:58.714Z,12.7
2016-11-21T04:49:14.618Z,12.7
2016-11-21T04:50:30.375Z,12.74
2016-11-21T04:51:46.267Z,12.7
2016-11-21T04:53:02.926Z,12.62
2016-11-21T04:54:19.130Z,12.69
2016-11-21T04:55:36.219Z,12.74
2016-11-21T04:56:49.254Z,12.69
2016-11-21T04:58:05.094Z,12.7
2016-11-21T04:59:20.156Z,12.77
2016-11-21T05:00:36.025Z,12.78
2016-11-21T05:01:51.762Z,12.75
2016-11-21T05:03:08.032Z,12.78
2016-11-21T05:04:24.552Z,12.84
2016-11-21T05:05:40.849Z,12.71
2016-11-21T05:06:55.284Z,12.85
2016-11-21T05:08:11.465Z,12.74
2016-11-21T05:09:26.685Z,12.77
2016-11-21T05:10:43.247Z,12.75
2016-11-21T05:11:59.865Z,12.74
2016-11-21T05:13:14.940Z,12.78
2016-11-21T05:14:31.827Z,12.77
2016-11-21T05:15:47.956Z,12.87
2016-11-21T05:17:04.558Z,12.87
2016-11-21T05:18:21.084Z,12.85
2016-11-21T05:19:37.296Z,12.96
2016-11-21T05:20:54.407Z,12.93
2016-11-21T05:22:09.264Z,12.85
2016-11-21T05:23:23.157Z,12.81
2016-11-21T05:24:39.511Z,12.87
2016-11-21T05:25:55.886Z,12.78
2016-11-21T05:27:11.881Z,12.88
2016-11-21T05:28:27.199Z,12.88
2016-11-21T05:29:41.944Z,12.77
2016-11-21T05:30:56.673Z,12.75
2016-11-21T05:32:12.974Z,12.82
2016-11-21T05:33:26.161Z,12.75
2016-11-21T05:34:40.600Z,12.66
2016-11-21T05:35:55.969Z,12.66
2016-11-21T05:37:10.808Z,12.59
2016-11-21T05:38:26.987Z,12.75
2016-11-21T05:39:42.466Z,12.66
2016-11-21T05:40:57.268Z,12.64
2016-11-21T05:42:13.807Z,12.62
2016-11-21T05:43:28.045Z,12.63
2016-11-21T05:44:43.714Z,12.6
2016-11-21T05:45:56.985Z,12.54
2016-11-21T05:47:12.910Z,12.48
2016-11-21T05:48:27.959Z,12.49
2016-11-21T05:49:44.238Z,12.41
2016-11-21T05:50:58.980Z,12.41
2016-11-21T05:52:14.204Z,12.44
2016-11-21T05:53:28.617Z,12.39
2016-11-21T05:54:45.548Z,12.44
2016-11-21T05:56:00.683Z,12.45
2016-11-21T05:57:14.954Z,12.46
2016-11-21T05:58:30.854Z,12.41
2016-11-21T05:59:45.774Z,12.51
2016-11-21T06:01:02.167Z,12.49
2016-11-21T06:02:16.902Z,12.59
2016-11-21T06:03:33.462Z,12.59
2016-11-21T06:04:47.656Z,12.69
2016-11-21T06:06:02.738Z,12.62
2016-11-21T06:07:17.419Z,12.75
2016-11-21T06:08:30.581Z,12.62
2016-11-21T06:09:46.493Z,12.74
2016-11-21T06:11:02.241Z,12.69
2016-11-21T06:12:17.335Z,12.67
2016-11-21T06:13:33.605Z,12.69
2016-11-21T06:14:47.065Z,12.71
2016-11-21T06:16:02.025Z,12.74
2016-11-21T06:17:16.704Z,12.78
2016-11-21T06:18:31.798Z,12.77
2016-11-21T06:19:48.266Z,12.75
2016-11-21T06:21:04.455Z,12.78
2016-11-21T06:22:19.894Z,12.78
2016-11-21T06:23:34.940Z,12.75
2016-11-21T06:24:49.482Z,12.82
2016-11-21T06:26:05.851Z,12.77
2016-11-21T06:27:20.446Z,12.92
2016-11-21T06:28:35.514Z,12.79
2016-11-21T06:29:52.139Z,12.88
2016-11-21T06:31:06.971Z,12.89
2016-11-21T06:32:23.261Z,12.85
2016-11-21T06:33:38.344Z,12.88
2016-11-21T06:34:54.071Z,12.93
2016-11-21T06:36:10.399Z,12.97
2016-11-21T06:37:24.735Z,12.85
2016-11-21T06:38:41.319Z,12.85
2016-11-21T06:39:55.551Z,12.74
2016-11-21T06:41:11.428Z,12.77
2016-11-21T06:42:26.615Z,12.81
2016-11-21T06:43:42.532Z,12.74
2016-11-21T06:44:59.254Z,12.71
2016-11-21T06:46:15.735Z,12.67
2016-11-21T06:47:31.667Z,12.67
2016-11-21T06:48:47.427Z,12.64
2016-11-21T06:50:02.687Z,12.67
2016-11-21T06:51:17.677Z,12.63
2016-11-21T06:52:34.548Z,12.59
2016-11-21T06:53:50.826Z,12.75
2016-11-21T06:55:05.406Z,12.69
2016-11-21T06:56:22.076Z,12.71
2016-11-21T06:57:38.184Z,12.64
2016-11-21T06:58:53.835Z,12.66
2016-11-21T07:00:09.891Z,12.67
2016-11-21T07:01:23.088Z,12.69
2016-11-21T07:02:38.211Z,12.67
2016-11-21T07:03:55.140Z,12.7
2016-11-21T07:05:11.847Z,12.7
2016-11-21T07:06:28.158Z,12.78
2016-11-21T07:07:42.844Z,12.74
2016-11-21T07:08:57.624Z,12.82
2016-11-21T07:10:10.836Z,12.78
2016-11-21T07:11:25.502Z,12.74
2016-11-21T07:12:40.997Z,12.84
2016-11-21T07:13:57.158Z,12.87
2016-11-21T07:15:10.177Z,12.88
2016-11-21T07:16:23.851Z,12.75
2016-11-21T07:17:39.724Z,12.85
2016-11-21T07:18:56.003Z,12.87
2016-11-21T07:20:11.334Z,12.85
2016-11-21T07:21:26.063Z,12.84
2016-11-21T07:22:41.999Z,12.84
2016-11-21T07:23:58.582Z,12.84
2016-11-21T07:25:13.024Z,12.92
2016-11-21T07:26:27.736Z,12.85
2016-11-21T07:27:44.030Z,12.85
2016-11-21T07:29:00.002Z,12.89
2016-11-21T07:30:15.037Z,12.88
2016-11-21T07:31:29.623Z,12.78
2016-11-21T07:32:43.418Z,12.74
2016-11-21T07:33:56.739Z,12.78
2016-11-21T07:35:12.923Z,12.81
2016-11-21T07:36:28.233Z,12.74
2016-11-21T07:37:44.529Z,12.74
2016-11-21T07:39:00.014Z,12.74
2016-11-21T07:40:13.394Z,12.77
2016-11-21T07:41:30.111Z,12.75
2016-11-21T07:42:46.425Z,12.77
2016-11-21T07:43:59.546Z,12.78
2016-11-21T07:45:15.305Z,12.78
2016-11-21T07:46:31.828Z,12.77
2016-11-21T07:47:47.001Z,12.74
2016-11-21T07:49:02.184Z,12.81
2016-11-21T07:50:17.075Z,12.77
2016-11-21T07:51:33.385Z,12.88
2016-11-21T07:52:49.947Z,12.84
2016-11-21T07:54:06.891Z,12.88
2016-11-21T07:55:22.770Z,12.82
2016-11-21T07:56:39.638Z,12.99
2016-11-21T07:57:53.642Z,12.99
2016-11-21T07:59:10.249Z,13.03
2016-11-21T08:00:26.256Z,13.02
2016-11-21T08:01:41.375Z,13.03
2016-11-21T08:02:57.507Z,12.97
2016-11-21T08:04:13.794Z,13.04
2016-11-21T08:05:28.631Z,12.99
2016-11-21T08:06:43.737Z,13.12
2016-11-21T08:07:58.563Z,13.11
2016-11-21T08:09:15.792Z,13.06
2016-11-21T08:10:27.319Z,13.04
2016-11-21T08:11:44.045Z,13.12
2016-11-21T08:12:58.922Z,13.15
2016-11-21T08:14:15.477Z,13.18
2016-11-21T08:15:29.999Z,13.11
2016-11-21T08:16:46.301Z,13.18
2016-11-21T08:18:01.991Z,13.21
2016-11-21T08:19:18.984Z,13.24
2016-11-21T08:20:35.410Z,13.18
2016-11-21T08:21:51.375Z,13.21
2016-11-21T08:23:08.020Z,13.18
2016-11-21T08:24:23.743Z,13.2
2016-11-21T08:25:38.814Z,13.21
2016-11-21T08:26:53.473Z,13.22
2016-11-21T08:28:06.892Z,13.32
2016-11-21T08:29:23.496Z,13.3
2016-11-21T08:30:38.536Z,13.25
2016-11-21T08:31:52.650Z,13.27
2016-11-21T08:33:09.073Z,13.21
2016-11-21T08:34:26.399Z,13.18
2016-11-21T08:35:42.381Z,13.18
2016-11-21T08:36:59.228Z,13.2
2016-11-21T08:38:15.129Z,13.11
2016-11-21T08:39:31.972Z,13.2
2016-11-21T08:40:45.741Z,13.15
2016-11-21T08:42:02.173Z,13.12
2016-11-21T08:43:17.183Z,13.21
2016-11-21T08:44:31.793Z,13.21
2016-11-21T08:45:48.145Z,13.06
2016-11-21T08:47:04.101Z,13.21
2016-11-21T08:48:19.028Z,13.15
2016-11-21T08:49:35.123Z,13.2
2016-11-21T08:50:49.905Z,13.14
2016-11-21T08:52:06.103Z,13.11
2016-11-21T08:53:20.944Z,13.11
2016-11-21T08:54:36.187Z,13.12
2016-11-21T08:55:52.752Z,13.15
2016-11-21T08:57:08.868Z,13.04
2016-11-21T08:58:24.337Z,13.03
2016-11-21T08:59:41.274Z,13.06
2016-11-21T09:00:54.110Z,13.12
2016-11-21T09:02:10.948Z,13.06
2016-11-21T09:03:26.166Z,13.07
2016-11-21T09:04:42.568Z,13.09
2016-11-21T09:05:58.904Z,13.15
2016-11-21T09:07:15.214Z,13.11
2016-11-21T09:08:32.135Z,13.07
2016-11-21T09:09:46.442Z,13.14
2016-11-21T09:11:02.746Z,13.17
2016-11-21T09:12:17.771Z,13.15
2016-11-21T09:13:33.500Z,13.17
2016-11-21T09:14:49.455Z,13.18
2016-11-21T09:16:03.824Z,13.17
2016-11-21T09:17:20.124Z,13.18
2016-11-21T09:18:36.707Z,13.2
2016-11-21T09:19:52.124Z,13.09
2016-11-21T09:21:07.752Z,13.24
2016-11-21T09:22:24.309Z,13.25
2016-11-21T09:23:40.435Z,13.22
2016-11-21T09:24:54.232Z,13.24
2016-11-21T09:26:10.533Z,13.24
2016-11-21T09:27:25.618Z,13.27
2016-11-21T09:28:40.647Z,13.32
2016-11-21T09:29:54.847Z,13.27
2016-11-21T09:31:11.073Z,13.32
2016-11-21T09:32:24.304Z,13.33
2016-11-21T09:33:37.673Z,13.37
2016-11-21T09:34:49.690Z,13.38
2016-11-21T09:36:06.588Z,13.33
2016-11-21T09:37:20.456Z,13.38
2016-11-21T09:38:35.708Z,13.37
2016-11-21T09:39:52.791Z,13.33
2016-11-21T09:41:09.620Z,13.32
2016-11-21T09:42:25.711Z,13.38
2016-11-21T09:43:42.403Z,13.36
2016-11-21T09:44:59.282Z,13.32
2016-11-21T09:46:16.391Z,13.36
2016-11-21T09:47:31.620Z,13.33
2016-11-21T09:48:46.083Z,13.29
2016-11-21T09:50:02.249Z,13.22
2016-11-21T09:51:18.008Z,13.09
2016-11-21T09:52:34.699Z,13.04
2016-11-21T09:53:49.671Z,13.03
2016-11-21T09:55:03.593Z,13.06
2016-11-21T09:56:19.691Z,13.04
2016-11-21T09:57:35.937Z,13.04
2016-11-21T09:58:52.507Z,12.99
2016-11-21T10:00:05.529Z,13.04
2016-11-21T10:01:19.469Z,12.97
2016-11-21T10:02:36.152Z,13.03
2016-11-21T10:03:52.448Z,12.97
2016-11-21T10:05:07.262Z,12.96
2016-11-21T10:06:23.311Z,12.95
2016-11-21T10:07:40.033Z,12.96
2016-11-21T10:08:56.866Z,12.96
2016-11-21T10:10:12.946Z,13.03
2016-11-21T10:11:27.378Z,13.07
2016-11-21T10:12:43.735Z,13.15
2016-11-21T10:13:58.358Z,13.14
2016-11-21T10:15:14.263Z,13.09
2016-11-21T10:16:30.665Z,13.14
2016-11-21T10:17:45.919Z,13.15
2016-11-21T10:19:00.181Z,13.03
2016-11-21T10:20:14.625Z,13.11
2016-11-21T10:21:27.729Z,13.07
2016-11-21T10:22:42.175Z,13.06
2016-11-21T10:23:58.968Z,12.97
2016-11-21T10:25:15.574Z,12.97
2016-11-21T10:26:32.040Z,13.02
2016-11-21T10:27:45.744Z,13
2016-11-21T10:28:59.205Z,12.96
2016-11-21T10:30:13.392Z,12.97
2016-11-21T10:31:30.162Z,12.92
2016-11-21T10:32:43.695Z,12.89
2016-11-21T10:34:00.785Z,12.92
2016-11-21T10:35:17.359Z,12.84
2016-11-21T10:36:34.097Z,12.96
2016-11-21T10:37:50.264Z,12.92
2016-11-21T10:39:05.364Z,12.88
2016-11-21T10:40:18.921Z,12.87
2016-11-21T10:41:33.850Z,12.96
2016-11-21T10:42:48.961Z,12.85
2016-11-21T10:44:04.930Z,12.88
2016-11-21T10:45:21.596Z,12.87
2016-11-21T10:46:36.078Z,12.88
2016-11-21T10:47:52.781Z,12.88
2016-11-21T10:49:07.771Z,12.87
2016-11-21T10:50:23.410Z,12.84
2016-11-21T10:51:38.096Z,12.79
2016-11-21T10:52:54.885Z,12.89
2016-11-21T10:54:10.773Z,12.89
2016-11-21T10:55:25.709Z,12.84
2016-11-21T10:56:40.897Z,12.84
2016-11-21T10:57:55.626Z,12.85
2016-11-21T10:59:11.958Z,12.88
2016-11-21T11:00:28.900Z,12.89
2016-11-21T11:01:44.169Z,12.88
2016-11-21T11:02:58.604Z,12.95
2016-11-21T11:04:15.063Z,12.88
2016-11-21T11:05:31.216Z,12.97
2016-11-21T11:06:46.402Z,12.96
2016-11-21T11:08:02.284Z,12.95
2016-11-21T11:09:18.473Z,13.06
2016-11-21T11:10:35.167Z,13.06
2016-11-21T11:11:51.297Z,13.24
2016-11-21T11:13:07.515Z,13.24
2016-11-21T11:14:23.528Z,13.22
2016-11-21T11:15:39.809Z,13.29
2016-11-21T11:16:55.950Z,13.33
2016-11-21T11:18:10.900Z,13.29
2016-11-21T11:19:25.505Z,13.3
2016-11-21T11:20:40.038Z,13.33
2016-11-21T11:21:56.273Z,13.32
2016-11-21T11:23:12.430Z,13.27
2016-11-21T11:24:28.415Z,13.27
2016-11-21T11:25:41.800Z,13.29
2016-11-21T11:26:56.328Z,13.36
2016-11-21T11:28:12.321Z,13.37
2016-11-21T11:29:26.961Z,13.38
2016-11-21T11:30:41.683Z,13.37
2016-11-21T11:31:58.601Z,13.33
2016-11-21T11:33:12.804Z,13.37
2016-11-21T11:34:29.467Z,13.3
2016-11-21T11:35:45.935Z,13.32
2016-11-21T11:37:01.483Z,13.37
2016-11-21T11:38:18.632Z,13.36
2016-11-21T11:39:35.207Z,13.32
2016-11-21T11:40:49.779Z,13.37
2016-11-21T11:42:06.136Z,13.3
2016-11-21T11:43:22.855Z,13.36
2016-11-21T11:44:37.119Z,13.32
2016-11-21T11:45:51.873Z,13.4
2016-11-21T11:47:07.993Z,13.41
2016-11-21T11:48:23.075Z,13.41
2016-11-21T11:49:37.753Z,13.43
2016-11-21T11:50:53.263Z,13.46
2016-11-21T11:52:09.466Z,13.51
2016-11-21T11:53:24.016Z,13.33
2016-11-21T11:54:39.034Z,13.4
2016-11-21T11:55:54.120Z,13.4
2016-11-21T11:57:10.113Z,13.41
2016-11-21T11:58:25.342Z,13.44
2016-11-21T11:59:42.082Z,13.37
2016-11-21T12:00:56.761Z,13.43
2016-11-21T12:02:13.302Z,13.46
2016-11-21T12:03:29.698Z,13.36
2016-11-21T12:04:44.419Z,13.37
2016-11-21T12:06:01.146Z,13.33
2016-11-21T12:07:16.945Z,13.4
2016-11-21T12:08:31.986Z,13.43
2016-11-21T12:09:47.452Z,13.38
2016-11-21T12:11:02.100Z,13.44
2016-11-21T12:12:18.410Z,13.44
2016-11-21T12:13:33.235Z,13.38
2016-11-21T12:14:46.341Z,13.44
2016-11-21T12:16:01.022Z,13.37
2016-11-21T12:17:17.455Z,13.37
2016-11-21T12:18:33.575Z,13.41
2016-11-21T12:19:50.304Z,13.43
2016-11-21T12:21:04.747Z,13.38
2016-11-21T12:22:16.885Z,13.37
2016-11-21T12:23:33.048Z,13.41
2016-11-21T12:24:47.907Z,13.38
2016-11-21T12:26:04.280Z,13.38
2016-11-21T12:27:18.993Z,13.41
2016-11-21T12:28:33.866Z,13.43
2016-11-21T12:29:50.086Z,13.46
2016-11-21T12:31:06.400Z,13.41
2016-11-21T12:32:23.412Z,13.4
2016-11-21T12:33:39.089Z,13.41
2016-11-21T12:34:55.110Z,13.4
2016-11-21T12:36:09.547Z,13.37
2016-11-21T12:37:26.289Z,13.47
2016-11-21T12:38:42.622Z,13.49
2016-11-21T12:39:57.579Z,13.47
2016-11-21T12:41:13.515Z,13.49
2016-11-21T12:42:29.318Z,13.47
2016-11-21T12:43:43.755Z,13.54
2016-11-21T12:44:58.664Z,13.62
2016-11-21T12:46:14.175Z,13.55
2016-11-21T12:47:30.562Z,13.55
2016-11-21T12:48:47.141Z,13.54
2016-11-21T12:50:04.118Z,13.54
2016-11-21T12:51:19.844Z,13.59
2016-11-21T12:52:35.508Z,13.54
2016-11-21T12:53:50.675Z,13.55
2016-11-21T12:55:05.665Z,13.55
2016-11-21T12:56:19.305Z,13.59
2016-11-21T12:57:35.736Z,13.69
2016-11-21T12:58:48.590Z,13.58
2016-11-21T13:00:05.120Z,13.69
2016-11-21T13:01:21.557Z,13.62
2016-11-21T13:02:38.099Z,13.77
2016-11-21T13:03:53.221Z,13.74
2016-11-21T13:05:09.688Z,13.77
2016-11-21T13:06:24.154Z,13.76
2016-11-21T13:07:40.227Z,13.8
2016-11-21T13:08:57.166Z,13.89
2016-11-21T13:10:12.752Z,13.89
2016-11-21T13:11:29.524Z,13.98
2016-11-21T13:12:45.130Z,13.94
2016-11-21T13:14:01.643Z,13.94
2016-11-21T13:15:16.486Z,13.91
2016-11-21T13:16:33.267Z,13.91
2016-11-21T13:17:49.315Z,13.92
2016-11-21T13:19:04.349Z,13.94
2016-11-21T13:20:19.773Z,13.96
2016-11-21T13:21:33.368Z,13.89
2016-11-21T13:22:47.421Z,13.92
2016-11-21T13:24:01.438Z,13.99
2016-11-21T13:25:17.597Z,14.07
2016-11-21T13:26:34.139Z,14.1
2016-11-21T13:27:49.332Z,14.13
2016-11-21T13:29:03.155Z,14.1
2016-11-21T13:30:17.689Z,14.01
2016-11-21T13:31:34.157Z,14.14
2016-11-21T13:32:50.268Z,14.14
2016-11-21T13:34:05.531Z,14.19
2016-11-21T13:35:20.670Z,14.19
2016-11-21T13:36:36.737Z,14.1
2016-11-21T13:37:50.241Z,14.13
2016-11-21T13:39:03.616Z,14.12
2016-11-21T13:40:19.796Z,14.17
2016-11-21T13:41:34.223Z,14.17
2016-11-21T13:42:49.273Z,14.21
2016-11-21T13:44:04.125Z,14.13
2016-11-21T13:45:19.996Z,14.16
2016-11-21T13:46:33.461Z,14.14
2016-11-21T13:47:50.057Z,14.13
2016-11-21T13:49:05.404Z,14.14
2016-11-21T13:50:20.072Z,14.14
2016-11-21T13:51:35.927Z,14.14
2016-11-21T13:52:52.554Z,14.12
2016-11-21T13:54:06.433Z,14.17
2016-11-21T13:55:21.364Z,14.17
2016-11-21T13:56:37.528Z,14.13
2016-11-21T13:57:52.644Z,14.09
2016-11-21T13:59:07.979Z,14.17
2016-11-21T14:00:24.842Z,14.19
2016-11-21T14:01:41.130Z,14.07
2016-11-21T14:02:55.930Z,14.14
2016-11-21T14:04:10.418Z,14.13
2016-11-21T14:05:26.453Z,14.13
2016-11-21T14:06:38.546Z,14.1
2016-11-21T14:07:54.464Z,14.17
2016-11-21T14:09:09.979Z,14.13
2016-11-21T14:10:23.314Z,14.2
2016-11-21T14:11:38.171Z,14.27
2016-11-21T14:12:53.858Z,14.2
2016-11-21T14:14:09.087Z,14.32
2016-11-21T14:15:22.987Z,14.29
2016-11-21T14:16:39.812Z,14.38
2016-11-21T14:17:55.492Z,14.35
2016-11-21T14:19:12.262Z,14.43
2016-11-21T14:20:27.203Z,14.43
2016-11-21T14:21:42.468Z,14.44
2016-11-21T14:22:57.568Z,14.37
2016-11-21T14:24:11.066Z,14.47
2016-11-21T14:25:28.160Z,14.29
2016-11-21T14:26:43.016Z,14.16
2016-11-21T14:27:59.910Z,14.09
2016-11-21T14:29:15.259Z,13.88
2016-11-21T14:30:30.160Z,13.67
2016-11-21T14:31:45.017Z,13.58
2016-11-21T14:33:00.224Z,13.62
2016-11-21T14:34:16.839Z,13.61
2016-11-21T14:35:32.752Z,13.49
2016-11-21T14:36:49.310Z,13.51
2016-11-21T14:38:05.270Z,13.51
2016-11-21T14:39:22.175Z,13.49
2016-11-21T14:40:38.727Z,13.54
2016-11-21T14:41:55.662Z,13.44
2016-11-21T14:43:12.085Z,13.52
2016-11-21T14:44:28.645Z,13.44
2016-11-21T14:45:45.155Z,13.54
2016-11-21T14:46:58.447Z,13.52
2016-11-21T14:48:11.458Z,13.69
2016-11-21T14:49:26.411Z,13.65
2016-11-21T14:50:43.074Z,13.62
2016-11-21T14:51:59.943Z,13.63
2016-11-21T14:53:15.266Z,13.65
2016-11-21T14:54:30.993Z,13.62
2016-11-21T14:55:46.220Z,13.81
2016-11-21T14:57:01.134Z,13.76
2016-11-21T14:58:15.911Z,13.84
2016-11-21T14:59:32.312Z,13.94
2016-11-21T15:00:47.221Z,14.06
2016-11-21T15:02:03.141Z,13.99
2016-11-21T15:03:17.891Z,14.09
2016-11-21T15:04:34.216Z,14.19
2016-11-21T15:05:50.528Z,14.1
2016-11-21T15:07:05.784Z,14.14
2016-11-21T15:08:19.240Z,14.17
2016-11-21T15:09:35.798Z,14.28
2016-11-21T15:10:52.357Z,14.25
2016-11-21T15:12:08.407Z,14.38
2016-11-21T15:13:23.335Z,14.39
2016-11-21T15:14:39.835Z,14.44
2016-11-21T15:15:56.022Z,14.39
2016-11-21T15:17:09.926Z,14.46
2016-11-21T15:18:26.864Z,14.52
2016-11-21T15:19:40.033Z,14.6
2016-11-21T15:20:55.838Z,14.61
2016-11-21T15:22:11.969Z,14.57
2016-11-21T15:23:27.083Z,14.53
2016-11-21T15:24:42.847Z,14.57
2016-11-21T15:25:59.418Z,14.56
2016-11-21T15:27:15.903Z,14.64
2016-11-21T15:28:32.010Z,14.65
2016-11-21T15:29:48.300Z,14.68
2016-11-21T15:31:03.294Z,14.65
2016-11-21T15:32:19.939Z,14.64
2016-11-21T15:33:35.999Z,14.69
2016-11-21T15:34:49.556Z,14.71
2016-11-21T15:36:06.345Z,14.75
2016-11-21T15:37:21.445Z,14.69
2016-11-21T15:38:38.436Z,14.67
2016-11-21T15:39:55.263Z,14.69
2016-11-21T15:41:08.653Z,14.74
2016-11-21T15:42:23.411Z,14.68
2016-11-21T15:43:40.002Z,14.71
2016-11-21T15:44:54.714Z,14.61
2016-11-21T15:46:09.082Z,14.71
2016-11-21T15:47:25.411Z,14.64
2016-11-21T15:48:42.174Z,14.68
2016-11-21T15:49:57.125Z,14.69
2016-11-21T15:51:13.538Z,14.69
2016-11-21T15:52:28.381Z,14.62
2016-11-21T15:53:43.634Z,14.67
2016-11-21T15:54:58.151Z,14.65
2016-11-21T15:56:15.145Z,14.67
2016-11-21T15:57:30.180Z,14.57
2016-11-21T15:58:44.710Z,14.6
2016-11-21T16:00:01.244Z,14.61
2016-11-21T16:01:16.688Z,14.61
2016-11-21T16:02:32.625Z,14.61
2016-11-21T16:03:47.100Z,14.62
2016-11-21T16:05:03.655Z,14.68
2016-11-21T16:06:19.930Z,14.64
2016-11-21T16:07:36.822Z,14.64
2016-11-21T16:08:53.598Z,14.64
2016-11-21T16:10:07.888Z,14.69
2016-11-21T16:11:21.140Z,14.62
2016-11-21T16:12:37.814Z,14.61
2016-11-21T16:13:51.267Z,14.64
2016-11-21T16:15:06.795Z,14.61